createdAt,value
2019-01-04T00:01:32.871Z,93299.58
2019-01-04T00:04:03.147Z,93297.88
2019-01-04T00:06:30.627Z,93308.51
2019-01-04T00:08:58.234Z,93309.36
2019-01-04T00:11:25.675Z,93311.45
2019-01-04T00:13:53.197Z,93318.59
2019-01-04T00:16:20.663Z,93319.43
2019-01-04T00:18:48.161Z,93317.45
2019-01-04T00:21:15.653Z,93322.02
2019-01-04T00:23:43.077Z,93320.74
2019-01-04T00:26:10.534Z,93324.17
2019-01-04T00:28:38.035Z,93328.81
2019-01-04T00:31:05.450Z,93331.39
2019-01-04T00:33:32.952Z,93334.38
2019-01-04T00:36:00.461Z,93338.61
2019-01-04T00:38:27.903Z,93342.42
2019-01-04T00:40:55.407Z,93333.55
2019-01-04T00:43:22.845Z,93339.11
2019-01-04T00:45:50.312Z,93340.34
2019-01-04T00:48:17.808Z,93339.55
2019-01-04T00:50:45.277Z,93335.37
2019-01-04T00:53:12.759Z,93334.15
2019-01-04T00:56:21.947Z,93332.35
2019-01-04T00:59:18.282Z,93332.40
2019-01-04T01:02:13.890Z,93332.83
2019-01-04T01:05:44.194Z,93329.91
2019-01-04T01:08:49.315Z,93329.04
2019-01-04T01:12:04.340Z,93335.77
2019-01-04T01:15:12.640Z,93330.30
2019-01-04T01:18:01.900Z,93332.44
2019-01-04T01:20:47.673Z,93329.48
2019-01-04T01:24:01.960Z,93336.20
2019-01-04T01:26:58.937Z,93334.59
2019-01-04T01:30:10.369Z,93329.97
2019-01-04T01:32:57.830Z,93335.47
2019-01-04T01:35:50.395Z,93332.55
2019-01-04T01:39:14.941Z,93343.11
2019-01-04T01:42:10.614Z,93343.52
2019-01-04T01:45:14.734Z,93339.27
2019-01-04T01:47:47.806Z,93340.14
2019-01-04T01:51:07.856Z,93342.28
2019-01-04T01:53:42.334Z,93342.28
2019-01-04T01:56:09.760Z,93342.72
2019-01-04T01:58:37.340Z,93342.76
2019-01-04T02:01:05.301Z,93340.27
2019-01-04T02:03:32.801Z,93336.91
2019-01-04T02:06:00.251Z,93336.43
2019-01-04T02:08:27.859Z,93340.23
2019-01-04T02:10:55.289Z,93337.70
2019-01-04T02:13:22.789Z,93336.44
2019-01-04T02:15:50.191Z,93336.47
2019-01-04T02:18:17.687Z,93335.64
2019-01-04T02:20:45.166Z,93331.84
2019-01-04T02:23:12.589Z,93332.71
2019-01-04T02:25:40.028Z,93332.28
2019-01-04T02:28:07.439Z,93327.22
2019-01-04T02:30:34.974Z,93333.55
2019-01-04T02:33:02.458Z,93327.28
2019-01-04T02:35:29.965Z,93341.23
2019-01-04T02:37:57.391Z,93343.34
2019-01-04T02:40:24.854Z,93336.08
2019-01-04T02:42:52.260Z,93334.81
2019-01-04T02:45:19.721Z,93338.67
2019-01-04T02:47:47.136Z,93331.08
2019-01-04T02:50:14.579Z,93334.91
2019-01-04T02:52:42.002Z,93337.88
2019-01-04T02:55:09.429Z,93341.67
2019-01-04T02:57:36.888Z,93337.88
2019-01-04T03:00:05.405Z,93338.31
2019-01-04T03:02:32.915Z,93346.30
2019-01-04T03:05:00.543Z,93341.64
2019-01-04T03:07:28.091Z,93349.66
2019-01-04T03:09:55.638Z,93354.30
2019-01-04T03:12:23.038Z,93353.92
2019-01-04T03:14:50.484Z,93355.62
2019-01-04T03:17:18.027Z,93355.61
2019-01-04T03:19:45.546Z,93361.52
2019-01-04T03:22:13.049Z,93353.03
2019-01-04T03:24:40.562Z,93357.26
2019-01-04T03:27:08.099Z,93359.81
2019-01-04T03:29:35.596Z,93365.69
2019-01-04T03:32:03.145Z,93363.58
2019-01-04T03:34:30.638Z,93374.16
2019-01-04T03:36:58.147Z,93369.08
2019-01-04T03:39:25.757Z,93368.21
2019-01-04T03:41:53.314Z,93372.84
2019-01-04T03:44:20.743Z,93371.17
2019-01-04T03:46:48.247Z,93371.17
2019-01-04T03:49:15.847Z,93372.84
2019-01-04T03:51:43.703Z,93373.70
2019-01-04T03:54:11.204Z,93375.38
2019-01-04T03:56:38.666Z,93383.00
2019-01-04T03:59:06.216Z,93386.77
2019-01-04T04:01:33.864Z,93391.42
2019-01-04T04:04:01.839Z,93397.72
2019-01-04T04:06:29.391Z,93395.63
2019-01-04T04:08:56.950Z,93386.36
2019-01-04T04:11:24.481Z,93390.16
2019-01-04T04:13:52.087Z,93395.67
2019-01-04T04:16:19.604Z,93390.98
2019-01-04T04:18:47.193Z,93392.25
2019-01-04T04:21:14.710Z,93397.31
2019-01-04T04:23:42.136Z,93404.10
2019-01-04T04:26:09.726Z,93400.30
2019-01-04T04:28:37.212Z,93404.50
2019-01-04T04:31:04.948Z,93404.08
2019-01-04T04:33:32.538Z,93404.05
2019-01-04T04:36:00.007Z,93398.59
2019-01-04T04:38:27.534Z,93404.91
2019-01-04T04:40:55.002Z,93402.84
2019-01-04T04:43:22.529Z,93408.70
2019-01-04T04:45:49.945Z,93408.33
2019-01-04T04:48:17.594Z,93409.13
2019-01-04T04:50:45.126Z,93410.00
2019-01-04T04:53:12.771Z,93413.79
2019-01-04T04:55:40.251Z,93409.56
2019-01-04T04:58:07.701Z,93412.93
2019-01-04T05:00:35.264Z,93413.79
2019-01-04T05:03:02.689Z,93414.23
2019-01-04T05:05:30.118Z,93413.77
2019-01-04T05:07:57.556Z,93420.14
2019-01-04T05:10:24.977Z,93424.34
2019-01-04T05:12:52.555Z,93432.75
2019-01-04T05:15:19.973Z,93440.77
2019-01-04T05:17:47.412Z,93436.97
2019-01-04T05:20:15.033Z,93439.53
2019-01-04T05:22:42.496Z,93443.76
2019-01-04T05:25:10.047Z,93444.55
2019-01-04T05:27:37.474Z,93453.01
2019-01-04T05:30:05.316Z,93460.59
2019-01-04T05:32:32.783Z,93467.78
2019-01-04T05:35:00.352Z,93472.39
2019-01-04T05:37:27.985Z,93472.40
2019-01-04T05:39:55.934Z,93478.30
2019-01-04T05:42:24.144Z,93481.27
2019-01-04T05:44:52.107Z,93488.45
2019-01-04T05:47:19.938Z,93488.03
2019-01-04T05:49:47.792Z,93494.75
2019-01-04T05:52:15.733Z,93501.09
2019-01-04T05:54:43.786Z,93500.23
2019-01-04T05:57:11.746Z,93500.27
2019-01-04T05:59:39.750Z,93508.28
2019-01-04T06:02:07.568Z,93503.65
2019-01-04T06:04:35.289Z,93513.78
2019-01-04T06:07:02.907Z,93514.61
2019-01-04T06:09:30.537Z,93515.02
2019-01-04T06:11:58.001Z,93530.19
2019-01-04T06:14:25.480Z,93522.63
2019-01-04T06:16:53.146Z,93522.59
2019-01-04T06:19:20.587Z,93523.87
2019-01-04T06:21:48.214Z,93533.98
2019-01-04T06:24:15.745Z,93532.26
2019-01-04T06:26:43.267Z,93543.23
2019-01-04T06:29:10.710Z,93547.86
2019-01-04T06:31:38.173Z,93552.91
2019-01-04T06:34:05.636Z,93560.08
2019-01-04T06:36:33.136Z,93558.38
2019-01-04T06:39:00.582Z,93570.16
2019-01-04T06:41:28.245Z,93571.84
2019-01-04T06:43:56.091Z,93576.91
2019-01-04T06:46:23.541Z,93576.88
2019-01-04T06:48:52.065Z,93584.49
2019-01-04T06:51:19.507Z,93584.50
2019-01-04T06:53:46.977Z,93583.62
2019-01-04T06:56:14.403Z,93595.02
2019-01-04T06:58:41.909Z,93602.17
2019-01-04T07:01:09.460Z,93607.67
2019-01-04T07:03:36.977Z,93608.86
2019-01-04T07:06:04.558Z,93617.70
2019-01-04T07:08:32.202Z,93622.67
2019-01-04T07:10:59.722Z,93625.12
2019-01-04T07:13:27.182Z,93633.60
2019-01-04T07:15:54.795Z,93637.72
2019-01-04T07:18:22.295Z,93638.78
2019-01-04T07:20:49.754Z,93656.27
2019-01-04T07:23:17.252Z,93652.47
2019-01-04T07:25:45.077Z,93656.72
2019-01-04T07:28:13.020Z,93656.84
2019-01-04T07:30:40.697Z,93659.37
2019-01-04T07:33:08.452Z,93670.68
2019-01-04T07:35:36.204Z,93667.42
2019-01-04T07:38:04.019Z,93669.63
2019-01-04T07:40:31.553Z,93673.73
2019-01-04T07:42:59.156Z,93685.95
2019-01-04T07:45:26.719Z,93685.95
2019-01-04T07:47:54.208Z,93682.54
2019-01-04T07:50:21.671Z,93683.77
2019-01-04T07:52:49.299Z,93679.75
2019-01-04T07:55:16.760Z,93677.81
2019-01-04T07:57:44.358Z,93683.13
2019-01-04T08:00:13.990Z,93681.54
2019-01-04T08:02:43.360Z,93687.20
2019-01-04T08:05:13.321Z,93680.02
2019-01-04T08:07:40.988Z,93683.94
2019-01-04T08:10:08.627Z,93686.44
2019-01-04T08:12:36.227Z,93688.20
2019-01-04T08:15:04.241Z,93693.50
2019-01-04T08:17:32.467Z,93689.22
2019-01-04T08:20:01.457Z,93688.28
2019-01-04T08:22:29.201Z,93694.01
2019-01-04T08:24:57.050Z,93695.38
2019-01-04T08:27:24.913Z,93690.31
2019-01-04T08:29:52.862Z,93695.16
2019-01-04T08:32:20.526Z,93700.06
2019-01-04T08:34:48.689Z,93703.84
2019-01-04T08:37:16.488Z,93704.16
2019-01-04T08:39:44.193Z,93700.42
2019-01-04T08:42:12.027Z,93702.61
2019-01-04T08:44:39.878Z,93704.37
2019-01-04T08:47:07.763Z,93700.19
2019-01-04T08:49:36.577Z,93704.87
2019-01-04T08:52:04.392Z,93711.93
2019-01-04T08:54:32.149Z,93697.45
2019-01-04T08:56:59.991Z,93706.08
2019-01-04T09:23:57.153Z,93692.92
2019-01-04T09:26:24.915Z,93688.89
2019-01-04T09:28:52.656Z,93693.30
2019-01-04T09:31:20.384Z,93697.16
2019-01-04T09:33:48.208Z,93696.89
2019-01-04T09:36:16.031Z,93707.56
2019-01-04T09:38:49.492Z,93701.74
2019-01-04T09:41:40.340Z,93702.74
2019-01-04T09:44:07.861Z,93703.08
2019-01-04T09:46:35.383Z,93709.17
2019-01-04T09:49:03.096Z,93694.98
2019-01-04T09:51:30.797Z,93700.03
2019-01-04T09:53:58.487Z,93703.45
2019-01-04T09:56:26.098Z,93705.62
2019-01-04T09:58:53.651Z,93697.64
2019-01-04T10:01:21.201Z,93702.96
2019-01-04T10:03:48.761Z,93699.01
2019-01-04T10:06:16.323Z,93698.73
2019-01-04T10:08:44.959Z,93700.66
2019-01-04T10:11:12.775Z,93697.29
2019-01-04T10:13:40.311Z,93700.10
2019-01-04T10:16:08.826Z,93704.66
2019-01-04T10:18:36.349Z,93706.69
2019-01-04T10:21:03.798Z,93695.32
2019-01-04T10:23:31.380Z,93698.79
2019-01-04T10:25:58.907Z,93703.32
2019-01-04T10:28:26.415Z,93701.59
2019-01-04T10:30:53.942Z,93702.48
2019-01-04T10:33:21.427Z,93694.20
2019-01-04T10:35:48.905Z,93691.52
2019-01-04T10:38:16.388Z,93698.66
2019-01-04T10:40:44.060Z,93701.45
2019-01-04T10:43:11.976Z,93698.02
2019-01-04T10:45:40.424Z,93699.36
2019-01-04T10:48:08.036Z,93700.06
2019-01-04T10:50:35.671Z,93694.09
2019-01-04T10:53:03.165Z,93699.38
2019-01-04T10:55:30.815Z,93694.41
2019-01-04T10:57:58.492Z,93690.75
2019-01-04T11:00:25.992Z,93694.06
2019-01-04T11:02:53.560Z,93696.00
2019-01-04T11:05:22.010Z,93697.78
2019-01-04T11:07:49.626Z,93699.13
2019-01-04T11:10:17.343Z,93705.02
2019-01-04T11:12:44.909Z,93699.13
2019-01-04T11:15:12.408Z,93695.88
2019-01-04T11:17:39.941Z,93699.76
2019-01-04T11:20:39.811Z,93701.77
2019-01-04T11:23:47.329Z,93696.51
2019-01-04T11:26:20.397Z,93705.27
2019-01-04T11:29:12.633Z,93709.93
2019-01-04T11:32:06.983Z,93710.58
2019-01-04T11:34:57.178Z,93706.19
2019-01-04T11:37:42.156Z,93702.34
2019-01-04T11:40:54.334Z,93700.83
2019-01-04T11:43:47.289Z,93702.36
2019-01-04T11:46:44.472Z,93707.70
2019-01-04T11:49:36.805Z,93703.99
2019-01-04T11:52:19.960Z,93709.75
2019-01-04T11:54:47.747Z,93697.57
2019-01-04T11:57:15.578Z,93699.47
2019-01-04T11:59:43.172Z,93692.70
2019-01-04T12:02:10.742Z,93694.27
2019-01-04T12:04:39.519Z,93693.20
2019-01-04T12:07:07.430Z,93693.28
2019-01-04T12:09:35.359Z,93688.06
2019-01-04T12:12:03.552Z,93692.07
2019-01-04T12:14:31.564Z,93694.09
2019-01-04T12:16:59.503Z,93694.61
2019-01-04T12:19:27.266Z,93699.01
2019-01-04T12:21:55.366Z,93699.25
2019-01-04T12:24:23.292Z,93701.77
2019-01-04T12:26:51.410Z,93715.78
2019-01-04T12:29:19.347Z,93726.65
2019-01-04T12:31:47.420Z,93725.00
2019-01-04T12:34:16.711Z,93723.59
2019-01-04T12:36:44.686Z,93723.61
2019-01-04T12:39:12.458Z,93727.33
2019-01-04T12:41:40.316Z,93732.11
2019-01-04T12:44:08.128Z,93733.03
2019-01-04T12:46:35.793Z,93748.34
2019-01-04T12:49:03.338Z,93748.02
2019-01-04T12:51:30.961Z,93753.33
2019-01-04T12:53:58.458Z,93752.01
2019-01-04T12:56:26.088Z,93750.34
2019-01-04T12:58:53.728Z,93749.03
2019-01-04T13:01:21.411Z,93742.66
2019-01-04T13:03:49.067Z,93740.28
2019-01-04T13:06:16.626Z,93738.09
2019-01-04T13:08:44.409Z,93734.98
2019-01-04T13:11:12.135Z,93741.31
2019-01-04T13:13:39.705Z,93740.56
2019-01-04T13:16:07.573Z,93732.88
2019-01-04T13:18:35.144Z,93729.22
2019-01-04T13:21:02.934Z,93736.45
2019-01-04T13:23:30.605Z,93739.06
2019-01-04T13:25:58.336Z,93732.77
2019-01-04T13:28:25.920Z,93731.05
2019-01-04T13:30:53.795Z,93737.42
2019-01-04T13:33:21.302Z,93735.76
2019-01-04T13:35:48.902Z,93745.10
2019-01-04T13:38:19.981Z,93745.11
2019-01-04T13:40:46.347Z,93755.27
2019-01-04T13:43:13.938Z,93758.25
2019-01-04T13:45:41.519Z,93756.21
2019-01-04T13:48:09.154Z,93748.08
2019-01-04T13:50:36.752Z,93753.22
2019-01-04T13:53:04.450Z,93743.27
2019-01-04T13:55:32.032Z,93746.20
2019-01-04T13:57:59.826Z,93747.11
2019-01-04T14:00:27.369Z,93751.81
2019-01-04T14:02:54.947Z,93751.80
2019-01-04T14:05:22.457Z,93747.98
2019-01-04T14:07:49.963Z,93754.30
2019-01-04T14:10:17.578Z,93761.48
2019-01-04T14:12:45.207Z,93760.70
2019-01-04T14:15:12.817Z,93758.15
2019-01-04T14:17:40.577Z,93751.05
2019-01-04T14:20:08.286Z,93755.66
2019-01-04T14:22:35.836Z,93750.61
2019-01-04T14:25:03.666Z,93749.34
2019-01-04T14:27:31.260Z,93750.61
2019-01-04T14:29:58.972Z,93748.11
2019-01-04T14:32:26.483Z,93751.92
2019-01-04T14:34:54.018Z,93741.77
2019-01-04T14:37:21.577Z,93741.39
2019-01-04T14:39:49.202Z,93749.02
2019-01-04T14:42:16.739Z,93745.63
2019-01-04T14:44:44.199Z,93746.50
2019-01-04T14:47:11.877Z,93745.26
2019-01-04T14:49:39.526Z,93747.77
2019-01-04T14:52:07.228Z,93743.13
2019-01-04T14:54:34.833Z,93740.59
2019-01-04T14:57:02.553Z,93741.86
2019-01-04T14:59:30.042Z,93735.14
2019-01-04T15:01:57.630Z,93738.91
2019-01-04T15:04:25.211Z,93739.38
2019-01-04T15:06:52.758Z,93737.23
2019-01-04T15:09:20.350Z,93735.99
2019-01-04T15:11:47.969Z,93736.45
2019-01-04T15:14:15.603Z,93735.56
2019-01-04T15:16:43.241Z,93741.09
2019-01-04T15:19:10.873Z,93741.12
2019-01-04T15:21:38.469Z,93736.47
2019-01-04T15:24:06.086Z,93745.34
2019-01-04T15:26:33.740Z,93747.88
2019-01-04T15:29:01.261Z,93751.28
2019-01-04T15:31:28.831Z,93751.27
2019-01-04T15:33:56.579Z,93751.29
2019-01-04T15:36:24.168Z,93750.03
2019-01-04T15:38:51.733Z,93753.38
2019-01-04T15:41:19.449Z,93748.31
2019-01-04T15:43:46.967Z,93747.05
2019-01-04T15:46:14.514Z,93747.50
2019-01-04T15:48:42.113Z,93757.63
2019-01-04T15:51:09.646Z,93752.99
2019-01-04T15:53:37.255Z,93761.84
2019-01-04T15:56:04.734Z,93772.01
2019-01-04T15:58:32.351Z,93774.11
2019-01-04T16:00:59.929Z,93769.04
2019-01-04T16:03:27.435Z,93771.14
2019-01-04T16:05:55.106Z,93777.91
2019-01-04T16:08:22.666Z,93769.89
2019-01-04T16:10:50.395Z,93771.17
2019-01-04T16:13:18.262Z,93774.52
2019-01-04T16:15:45.984Z,93777.49
2019-01-04T16:18:13.655Z,93770.73
2019-01-04T16:20:41.367Z,93772.43
2019-01-04T16:23:08.991Z,93774.54
2019-01-04T16:25:36.820Z,93764.41
2019-01-04T16:28:04.460Z,93767.77
2019-01-04T16:30:32.036Z,93765.66
2019-01-04T16:32:59.582Z,93770.73
2019-01-04T16:35:27.064Z,93766.09
2019-01-04T16:37:54.684Z,93758.48
2019-01-04T16:40:22.225Z,93764.41
2019-01-04T16:42:49.855Z,93765.66
2019-01-04T16:45:21.381Z,93766.51
2019-01-04T16:47:49.285Z,93762.29
2019-01-04T16:50:16.817Z,93759.75
2019-01-04T16:52:44.436Z,93756.81
2019-01-04T16:55:11.935Z,93755.94
2019-01-04T16:57:39.690Z,93750.47
2019-01-04T17:00:08.717Z,93752.16
2019-01-04T17:02:36.329Z,93755.52
2019-01-04T17:05:04.010Z,93754.27
2019-01-04T17:07:31.733Z,93751.74
2019-01-04T17:09:59.326Z,93754.27
2019-01-04T17:12:27.059Z,93752.56
2019-01-04T17:14:56.049Z,93752.55
2019-01-04T17:17:23.674Z,93757.20
2019-01-04T17:19:51.423Z,93761.00
2019-01-04T17:22:19.102Z,93761.42
2019-01-04T17:24:46.745Z,93765.63
2019-01-04T17:27:14.445Z,93763.55
2019-01-04T17:29:41.942Z,93761.42
2019-01-04T17:32:09.602Z,93766.93
2019-01-04T17:34:37.346Z,93758.89
2019-01-04T17:37:05.046Z,93762.70
2019-01-04T17:39:32.731Z,93765.65
2019-01-04T17:42:00.276Z,93758.08
2019-01-04T17:44:28.516Z,93763.11
2019-01-04T17:46:58.026Z,93766.48
2019-01-04T17:49:25.765Z,93771.99
2019-01-04T17:51:53.461Z,93765.66
2019-01-04T17:54:21.108Z,93773.26
2019-01-04T17:56:48.780Z,93770.73
2019-01-04T17:59:17.509Z,93783.82
2019-01-04T18:01:45.214Z,93790.56
2019-01-04T18:04:13.042Z,93790.56
2019-01-04T18:06:40.553Z,93782.54
2019-01-04T18:09:08.250Z,93785.05
2019-01-04T18:11:35.925Z,93789.70
2019-01-04T18:14:03.614Z,93787.63
2019-01-04T18:16:31.318Z,93796.91
2019-01-04T18:18:59.066Z,93783.80
2019-01-04T18:21:27.096Z,93782.13
2019-01-04T18:23:54.622Z,93785.51
2019-01-04T18:26:24.528Z,93786.78
2019-01-04T18:28:51.977Z,93783.38
2019-01-04T18:31:19.911Z,93775.36
2019-01-04T18:33:47.731Z,93778.29
2019-01-04T18:36:16.364Z,93778.75
2019-01-04T18:38:43.983Z,93781.70
2019-01-04T18:41:11.548Z,93780.00
2019-01-04T18:43:39.286Z,93782.98
2019-01-04T18:46:06.947Z,93785.08
2019-01-04T18:48:34.511Z,93782.54
2019-01-04T18:51:02.218Z,93782.95
2019-01-04T18:53:29.693Z,93780.84
2019-01-04T18:55:57.428Z,93783.82
2019-01-04T18:58:25.061Z,93785.49
2019-01-04T19:00:52.737Z,93786.76
2019-01-04T19:03:20.429Z,93790.97
2019-01-04T19:05:47.973Z,93793.52
2019-01-04T19:08:15.719Z,93789.72
2019-01-04T19:10:43.490Z,93791.39
2019-01-04T19:13:11.117Z,93785.48
2019-01-04T19:15:38.681Z,93790.95
2019-01-04T19:18:06.348Z,93796.02
2019-01-04T19:20:33.950Z,93796.03
2019-01-04T19:23:01.581Z,93790.98
2019-01-04T19:25:29.141Z,93786.73
2019-01-04T19:27:56.729Z,93793.94
2019-01-04T19:30:24.345Z,93791.81
2019-01-04T19:32:52.020Z,93785.46
2019-01-04T19:35:19.812Z,93779.14
2019-01-04T19:37:47.460Z,93782.08
2019-01-04T19:40:15.185Z,93779.57
2019-01-04T19:42:42.907Z,93773.23
2019-01-04T19:45:10.817Z,93769.39
2019-01-04T19:47:38.534Z,93771.09
2019-01-04T19:50:18.843Z,93768.99
2019-01-04T19:52:46.545Z,93777.84
2019-01-04T19:55:14.078Z,93766.05
2019-01-04T19:57:41.865Z,93773.23
2019-01-04T20:00:09.591Z,93773.65
2019-01-04T20:02:37.120Z,93777.45
2019-01-04T20:05:05.039Z,93778.70
2019-01-04T20:08:18.000Z,93776.98
2019-01-04T20:12:04.152Z,93783.73
2019-01-04T20:15:27.879Z,93779.97
2019-01-04T20:18:15.489Z,93780.78
2019-01-04T20:21:01.663Z,93786.68
2019-01-04T20:23:47.766Z,93777.83
2019-01-04T20:26:38.016Z,93781.63
2019-01-04T20:29:26.619Z,93774.87
2019-01-04T20:32:12.866Z,93775.72
2019-01-04T20:35:00.234Z,93781.23
2019-01-04T20:37:45.962Z,93786.27
2019-01-04T20:40:33.423Z,93793.88
2019-01-04T20:43:19.491Z,93798.94
2019-01-04T20:46:04.540Z,93790.07
2019-01-04T20:48:54.783Z,93795.09
2019-01-04T20:51:54.001Z,93800.20
2019-01-04T20:54:44.033Z,93789.61
2019-01-04T20:57:39.983Z,93778.64
2019-01-04T21:00:29.670Z,93775.66
2019-01-04T21:03:15.072Z,93773.16
2019-01-04T21:05:57.602Z,93788.72
2019-01-04T21:08:44.834Z,93795.07
2019-01-04T21:11:31.990Z,93790.03
2019-01-04T21:14:21.981Z,93787.06
2019-01-04T21:17:07.504Z,93783.70
2019-01-04T21:20:06.521Z,93782.83
2019-01-04T21:22:56.910Z,93785.80
2019-01-04T21:25:36.077Z,93778.23
2019-01-04T21:28:21.866Z,93769.78
2019-01-04T21:31:24.244Z,93769.38
2019-01-04T21:34:10.841Z,93771.05
2019-01-04T21:37:04.174Z,93761.34
2019-01-04T21:39:50.146Z,93760.50
2019-01-04T21:42:36.387Z,93757.95
2019-01-04T21:45:22.561Z,93752.48
2019-01-04T21:48:10.576Z,93757.54
2019-01-04T21:51:03.883Z,93753.28
2019-01-04T21:53:44.827Z,93749.94
2019-01-04T21:56:43.786Z,93744.05
2019-01-04T21:59:39.356Z,93746.13
2019-01-04T22:02:26.446Z,93744.86
2019-01-04T22:05:25.427Z,93740.25
2019-01-04T22:08:11.044Z,93735.55
2019-01-04T22:11:01.284Z,93733.88
2019-01-04T22:13:39.068Z,93733.83
2019-01-04T22:16:26.262Z,93725.81
2019-01-04T22:19:28.897Z,93719.89
2019-01-04T22:22:15.997Z,93709.78
2019-01-04T22:25:03.042Z,93708.50
2019-01-04T22:27:48.951Z,93705.50
2019-01-04T22:30:40.577Z,93699.22
2019-01-04T22:33:26.628Z,93708.08
2019-01-04T22:36:31.672Z,93708.50
2019-01-04T22:39:17.409Z,93694.97
2019-01-04T22:42:03.333Z,93702.52
2019-01-04T22:44:48.828Z,93712.63
2019-01-04T22:47:38.626Z,93711.82
2019-01-04T22:50:25.888Z,93708.89
2019-01-04T22:53:11.709Z,93716.05
2019-01-04T22:55:52.114Z,93712.27
2019-01-04T22:58:51.086Z,93715.20
2019-01-04T23:01:43.999Z,93723.62
2019-01-04T23:04:33.942Z,93711.80
2019-01-04T23:07:19.598Z,93708.85
2019-01-04T23:10:05.381Z,93703.84
2019-01-04T23:12:55.479Z,93706.36
2019-01-04T23:15:58.037Z,93709.32
2019-01-04T23:18:41.544Z,93708.41
2019-01-04T23:22:21.361Z,93706.73
2019-01-04T23:25:17.559Z,93697.05
2019-01-04T23:28:05.343Z,93689.89
2019-01-04T23:30:50.961Z,93671.74
2019-01-04T23:33:36.401Z,93670.47
2019-01-04T23:36:23.375Z,93659.91
2019-01-04T23:39:09.409Z,93666.24
2019-01-04T23:42:05.137Z,93672.16
2019-01-04T23:44:50.905Z,93679.76
2019-01-04T23:47:38.121Z,93685.66
2019-01-04T23:50:25.420Z,93686.08
2019-01-04T23:53:21.731Z,93688.20
2019-01-04T23:56:07.347Z,93684.80
2019-01-04T23:58:53.287Z,93693.28
